sensor_id;sensor_type;location;lat;lon;timestamp;temperature;humidity
53208;DHT22;39093;52.788;6.940;2023-06-22T00:00:15;20.20;99.90
53208;DHT22;39093;52.788;6.940;2023-06-22T00:02:42;20.20;99.90
53208;DHT22;39093;52.788;6.940;2023-06-22T00:05:08;20.10;99.90
53208;DHT22;39093;52.788;6.940;2023-06-22T00:07:35;20.00;99.90
53208;DHT22;39093;52.788;6.940;2023-06-22T00:10:03;20.00;99.90
53208;DHT22;39093;52.788;6.940;2023-06-22T00:12:30;20.00;99.90
53208;DHT22;39093;52.788;6.940;2023-06-22T00:14:58;20.00;99.90
53208;DHT22;39093;52.788;6.940;2023-06-22T00:17:25;20.00;99.90
53208;DHT22;39093;52.788;6.940;2023-06-22T00:19:52;20.00;99.90
53208;DHT22;39093;52.788;6.940;2023-06-22T00:22:21;20.00;99.90
53208;DHT22;39093;52.788;6.940;2023-06-22T00:24:56;20.00;99.90
53208;DHT22;39093;52.788;6.940;2023-06-22T00:27:23;20.00;99.90
53208;DHT22;39093;52.788;6.940;2023-06-22T00:29:50;19.90;99.90
53208;DHT22;39093;52.788;6.940;2023-06-22T00:32:17;19.90;99.90
53208;DHT22;39093;52.788;6.940;2023-06-22T00:34:45;20.00;99.90
53208;DHT22;39093;52.788;6.940;2023-06-22T00:37:12;19.90;99.90
53208;DHT22;39093;52.788;6.940;2023-06-22T00:39:39;19.90;99.90
53208;DHT22;39093;52.788;6.940;2023-06-22T00:42:06;19.80;99.90
53208;DHT22;39093;52.788;6.940;2023-06-22T00:44:33;19.80;99.90
53208;DHT22;39093;52.788;6.940;2023-06-22T00:47:00;19.80;99.90
53208;DHT22;39093;52.788;6.940;2023-06-22T00:49:27;19.80;99.90
53208;DHT22;39093;52.788;6.940;2023-06-22T00:51:56;19.80;99.90
53208;DHT22;39093;52.788;6.940;2023-06-22T00:54:24;19.70;99.90
53208;DHT22;39093;52.788;6.940;2023-06-22T00:56:53;19.70;99.90
53208;DHT22;39093;52.788;6.940;2023-06-22T00:59:23;19.70;99.90
53208;DHT22;39093;52.788;6.940;2023-06-22T01:01:51;19.70;99.90
53208;DHT22;39093;52.788;6.940;2023-06-22T01:04:18;19.60;99.90
53208;DHT22;39093;52.788;6.940;2023-06-22T01:06:58;19.60;99.90
53208;DHT22;39093;52.788;6.940;2023-06-22T01:09:32;19.60;99.90
53208;DHT22;39093;52.788;6.940;2023-06-22T01:12:02;19.50;99.90
53208;DHT22;39093;52.788;6.940;2023-06-22T01:14:37;19.50;99.90
53208;DHT22;39093;52.788;6.940;2023-06-22T01:17:08;19.50;99.90
53208;DHT22;39093;52.788;6.940;2023-06-22T01:19:49;19.50;99.90
53208;DHT22;39093;52.788;6.940;2023-06-22T01:22:25;19.40;99.90
53208;DHT22;39093;52.788;6.940;2023-06-22T01:25:09;19.40;99.90
53208;DHT22;39093;52.788;6.940;2023-06-22T01:30:24;19.40;99.90
53208;DHT22;39093;52.788;6.940;2023-06-22T01:32:54;19.30;99.90
53208;DHT22;39093;52.788;6.940;2023-06-22T01:35:22;19.30;99.90
53208;DHT22;39093;52.788;6.940;2023-06-22T01:37:51;19.30;99.90
53208;DHT22;39093;52.788;6.940;2023-06-22T01:40:19;19.30;99.90
53208;DHT22;39093;52.788;6.940;2023-06-22T01:42:48;19.20;99.90
53208;DHT22;39093;52.788;6.940;2023-06-22T01:45:16;19.20;99.90
53208;DHT22;39093;52.788;6.940;2023-06-22T01:47:44;19.20;99.90
53208;DHT22;39093;52.788;6.940;2023-06-22T01:50:12;19.20;99.90
53208;DHT22;39093;52.788;6.940;2023-06-22T01:52:39;19.10;99.90
53208;DHT22;39093;52.788;6.940;2023-06-22T01:55:06;19.10;99.90
53208;DHT22;39093;52.788;6.940;2023-06-22T01:57:35;19.10;99.90
53208;DHT22;39093;52.788;6.940;2023-06-22T02:00:04;19.10;99.90
53208;DHT22;39093;52.788;6.940;2023-06-22T02:02:39;19.00;99.90
53208;DHT22;39093;52.788;6.940;2023-06-22T02:05:10;19.00;99.90
53208;DHT22;39093;52.788;6.940;2023-06-22T02:07:46;19.00;99.90
53208;DHT22;39093;52.788;6.940;2023-06-22T02:10:16;18.90;99.90
53208;DHT22;39093;52.788;6.940;2023-06-22T02:12:44;18.90;99.90
53208;DHT22;39093;52.788;6.940;2023-06-22T02:15:13;18.90;99.90
53208;DHT22;39093;52.788;6.940;2023-06-22T02:17:41;18.90;99.90
53208;DHT22;39093;52.788;6.940;2023-06-22T02:20:15;18.80;99.90
53208;DHT22;39093;52.788;6.940;2023-06-22T02:22:42;18.90;99.90
53208;DHT22;39093;52.788;6.940;2023-06-22T02:25:09;18.80;99.90
53208;DHT22;39093;52.788;6.940;2023-06-22T02:27:36;18.90;99.90
53208;DHT22;39093;52.788;6.940;2023-06-22T02:30:08;18.80;99.90
53208;DHT22;39093;52.788;6.940;2023-06-22T02:32:38;18.80;99.90
53208;DHT22;39093;52.788;6.940;2023-06-22T02:35:09;18.80;99.90
53208;DHT22;39093;52.788;6.940;2023-06-22T02:37:37;18.80;99.90
53208;DHT22;39093;52.788;6.940;2023-06-22T02:40:09;18.80;99.90
53208;DHT22;39093;52.788;6.940;2023-06-22T02:42:37;18.70;99.90
53208;DHT22;39093;52.788;6.940;2023-06-22T02:45:04;18.70;99.90
53208;DHT22;39093;52.788;6.940;2023-06-22T02:47:32;18.70;99.90
53208;DHT22;39093;52.788;6.940;2023-06-22T02:49:59;18.70;99.90
53208;DHT22;39093;52.788;6.940;2023-06-22T02:52:26;18.70;99.90
53208;DHT22;39093;52.788;6.940;2023-06-22T02:54:53;18.70;99.90
53208;DHT22;39093;52.788;6.940;2023-06-22T02:57:19;18.60;99.90
53208;DHT22;39093;52.788;6.940;2023-06-22T02:59:46;18.60;99.90
53208;DHT22;39093;52.788;6.940;2023-06-22T03:02:13;18.60;99.90
53208;DHT22;39093;52.788;6.940;2023-06-22T03:04:40;18.60;99.90
53208;DHT22;39093;52.788;6.940;2023-06-22T03:07:08;18.60;99.90
53208;DHT22;39093;52.788;6.940;2023-06-22T03:09:34;18.60;99.90
53208;DHT22;39093;52.788;6.940;2023-06-22T03:12:01;18.60;99.90
53208;DHT22;39093;52.788;6.940;2023-06-22T03:14:29;18.60;99.90
53208;DHT22;39093;52.788;6.940;2023-06-22T03:16:56;18.60;99.90
53208;DHT22;39093;52.788;6.940;2023-06-22T03:19:28;18.50;99.90
53208;DHT22;39093;52.788;6.940;2023-06-22T03:21:59;18.50;99.90
53208;DHT22;39093;52.788;6.940;2023-06-22T03:24:26;18.50;99.90
53208;DHT22;39093;52.788;6.940;2023-06-22T03:26:55;18.50;99.90
53208;DHT22;39093;52.788;6.940;2023-06-22T03:29:23;18.50;99.90
53208;DHT22;39093;52.788;6.940;2023-06-22T03:31:55;18.50;99.90
53208;DHT22;39093;52.788;6.940;2023-06-22T03:34:22;18.50;99.90
53208;DHT22;39093;52.788;6.940;2023-06-22T03:36:49;18.50;99.90
53208;DHT22;39093;52.788;6.940;2023-06-22T03:39:16;18.50;99.90
53208;DHT22;39093;52.788;6.940;2023-06-22T03:41:43;18.50;99.90
53208;DHT22;39093;52.788;6.940;2023-06-22T03:44:10;18.40;99.90
53208;DHT22;39093;52.788;6.940;2023-06-22T03:46:41;18.50;99.90
53208;DHT22;39093;52.788;6.940;2023-06-22T03:49:08;18.40;99.90
53208;DHT22;39093;52.788;6.940;2023-06-22T03:51:35;18.40;99.90
53208;DHT22;39093;52.788;6.940;2023-06-22T03:54:02;18.50;99.90
53208;DHT22;39093;52.788;6.940;2023-06-22T03:56:29;18.50;99.90
53208;DHT22;39093;52.788;6.940;2023-06-22T03:58:56;18.50;99.90
53208;DHT22;39093;52.788;6.940;2023-06-22T04:01:23;18.50;99.90
53208;DHT22;39093;52.788;6.940;2023-06-22T04:03:50;18.40;99.90
53208;DHT22;39093;52.788;6.940;2023-06-22T04:06:17;18.40;99.90
53208;DHT22;39093;52.788;6.940;2023-06-22T04:08:45;18.50;99.90
53208;DHT22;39093;52.788;6.940;2023-06-22T04:11:18;18.50;99.90
53208;DHT22;39093;52.788;6.940;2023-06-22T04:13:45;18.50;99.90
53208;DHT22;39093;52.788;6.940;2023-06-22T04:16:12;18.40;99.90
53208;DHT22;39093;52.788;6.940;2023-06-22T04:18:39;18.50;99.90
53208;DHT22;39093;52.788;6.940;2023-06-22T04:21:06;18.40;99.90
53208;DHT22;39093;52.788;6.940;2023-06-22T04:23:33;18.50;99.90
53208;DHT22;39093;52.788;6.940;2023-06-22T04:26:00;18.40;99.90
53208;DHT22;39093;52.788;6.940;2023-06-22T04:28:27;18.40;99.90
53208;DHT22;39093;52.788;6.940;2023-06-22T04:30:54;18.40;99.90
53208;DHT22;39093;52.788;6.940;2023-06-22T04:33:29;18.30;99.90
53208;DHT22;39093;52.788;6.940;2023-06-22T04:35:56;18.30;99.90
53208;DHT22;39093;52.788;6.940;2023-06-22T04:38:27;18.20;99.90
53208;DHT22;39093;52.788;6.940;2023-06-22T04:40:54;18.20;99.90
53208;DHT22;39093;52.788;6.940;2023-06-22T04:43:21;18.20;99.90
53208;DHT22;39093;52.788;6.940;2023-06-22T04:45:48;18.20;99.90
53208;DHT22;39093;52.788;6.940;2023-06-22T04:48:19;18.10;99.90
53208;DHT22;39093;52.788;6.940;2023-06-22T04:50:46;18.10;99.90
53208;DHT22;39093;52.788;6.940;2023-06-22T04:53:13;18.10;99.90
53208;DHT22;39093;52.788;6.940;2023-06-22T04:55:40;18.00;99.90
53208;DHT22;39093;52.788;6.940;2023-06-22T04:58:08;18.00;99.90
53208;DHT22;39093;52.788;6.940;2023-06-22T05:00:35;18.10;99.90
53208;DHT22;39093;52.788;6.940;2023-06-22T05:03:03;18.10;99.90
53208;DHT22;39093;52.788;6.940;2023-06-22T05:05:45;18.10;99.90
53208;DHT22;39093;52.788;6.940;2023-06-22T05:08:13;18.00;99.90
53208;DHT22;39093;52.788;6.940;2023-06-22T05:10:40;18.00;99.90
53208;DHT22;39093;52.788;6.940;2023-06-22T05:13:27;18.00;99.90
53208;DHT22;39093;52.788;6.940;2023-06-22T05:15:53;18.00;99.90
53208;DHT22;39093;52.788;6.940;2023-06-22T05:18:31;18.00;99.90
53208;DHT22;39093;52.788;6.940;2023-06-22T05:21:00;18.00;99.90
53208;DHT22;39093;52.788;6.940;2023-06-22T05:23:27;18.00;99.90
53208;DHT22;39093;52.788;6.940;2023-06-22T05:25:54;18.00;99.90
53208;DHT22;39093;52.788;6.940;2023-06-22T05:28:24;18.10;99.90
53208;DHT22;39093;52.788;6.940;2023-06-22T05:30:51;18.00;99.90
53208;DHT22;39093;52.788;6.940;2023-06-22T05:33:18;18.10;99.90
53208;DHT22;39093;52.788;6.940;2023-06-22T05:35:45;18.10;99.90
53208;DHT22;39093;52.788;6.940;2023-06-22T05:38:12;18.10;99.90
53208;DHT22;39093;52.788;6.940;2023-06-22T05:40:38;18.20;99.90
53208;DHT22;39093;52.788;6.940;2023-06-22T05:43:05;18.20;99.90
53208;DHT22;39093;52.788;6.940;2023-06-22T05:45:32;18.30;99.90
53208;DHT22;39093;52.788;6.940;2023-06-22T05:47:59;18.30;99.90
53208;DHT22;39093;52.788;6.940;2023-06-22T05:50:26;18.40;99.90
53208;DHT22;39093;52.788;6.940;2023-06-22T05:52:53;18.50;99.90
53208;DHT22;39093;52.788;6.940;2023-06-22T05:55:20;18.50;99.90
53208;DHT22;39093;52.788;6.940;2023-06-22T05:57:47;18.60;99.90
53208;DHT22;39093;52.788;6.940;2023-06-22T06:00:14;18.60;99.90
53208;DHT22;39093;52.788;6.940;2023-06-22T06:02:41;18.70;99.90
53208;DHT22;39093;52.788;6.940;2023-06-22T06:05:11;18.80;99.90
53208;DHT22;39093;52.788;6.940;2023-06-22T06:07:44;18.90;99.90
53208;DHT22;39093;52.788;6.940;2023-06-22T06:10:12;18.90;99.90
53208;DHT22;39093;52.788;6.940;2023-06-22T06:12:39;19.00;99.90
53208;DHT22;39093;52.788;6.940;2023-06-22T06:15:06;19.10;99.90
53208;DHT22;39093;52.788;6.940;2023-06-22T06:17:48;19.10;99.90
53208;DHT22;39093;52.788;6.940;2023-06-22T06:20:19;19.10;99.90
53208;DHT22;39093;52.788;6.940;2023-06-22T06:22:47;19.20;99.90
53208;DHT22;39093;52.788;6.940;2023-06-22T06:25:14;19.20;99.90
53208;DHT22;39093;52.788;6.940;2023-06-22T06:27:46;19.50;99.90
53208;DHT22;39093;52.788;6.940;2023-06-22T06:30:15;19.70;99.90
53208;DHT22;39093;52.788;6.940;2023-06-22T06:32:42;20.00;99.90
53208;DHT22;39093;52.788;6.940;2023-06-22T06:35:10;20.20;99.90
53208;DHT22;39093;52.788;6.940;2023-06-22T06:37:38;20.30;99.90
53208;DHT22;39093;52.788;6.940;2023-06-22T06:40:06;20.40;99.90
53208;DHT22;39093;52.788;6.940;2023-06-22T06:42:41;20.50;99.90
53208;DHT22;39093;52.788;6.940;2023-06-22T06:45:09;20.70;99.90
53208;DHT22;39093;52.788;6.940;2023-06-22T06:47:36;21.00;99.90
53208;DHT22;39093;52.788;6.940;2023-06-22T06:50:04;21.10;99.90
53208;DHT22;39093;52.788;6.940;2023-06-22T06:52:31;21.10;99.90
53208;DHT22;39093;52.788;6.940;2023-06-22T06:54:59;21.00;99.90
53208;DHT22;39093;52.788;6.940;2023-06-22T06:57:26;20.90;99.90
53208;DHT22;39093;52.788;6.940;2023-06-22T06:59:57;20.90;99.90
53208;DHT22;39093;52.788;6.940;2023-06-22T07:02:25;20.80;99.90
53208;DHT22;39093;52.788;6.940;2023-06-22T07:04:52;20.80;99.90
53208;DHT22;39093;52.788;6.940;2023-06-22T07:07:19;20.80;99.90
53208;DHT22;39093;52.788;6.940;2023-06-22T07:09:46;20.80;99.90
53208;DHT22;39093;52.788;6.940;2023-06-22T07:12:13;20.90;99.90
53208;DHT22;39093;52.788;6.940;2023-06-22T07:14:40;21.00;99.90
53208;DHT22;39093;52.788;6.940;2023-06-22T07:17:07;21.10;99.90
53208;DHT22;39093;52.788;6.940;2023-06-22T07:19:34;21.20;99.90
53208;DHT22;39093;52.788;6.940;2023-06-22T07:22:01;21.50;99.90
53208;DHT22;39093;52.788;6.940;2023-06-22T07:24:28;21.60;99.90
53208;DHT22;39093;52.788;6.940;2023-06-22T07:26:55;21.90;99.90
53208;DHT22;39093;52.788;6.940;2023-06-22T07:29:24;22.10;99.90
53208;DHT22;39093;52.788;6.940;2023-06-22T07:31:51;22.30;99.90
53208;DHT22;39093;52.788;6.940;2023-06-22T07:34:19;22.50;99.90
53208;DHT22;39093;52.788;6.940;2023-06-22T07:36:46;22.70;99.90
53208;DHT22;39093;52.788;6.940;2023-06-22T07:39:13;22.80;99.90
53208;DHT22;39093;52.788;6.940;2023-06-22T07:41:41;22.90;99.90
53208;DHT22;39093;52.788;6.940;2023-06-22T07:44:08;23.10;99.90
53208;DHT22;39093;52.788;6.940;2023-06-22T07:46:34;23.20;99.90
53208;DHT22;39093;52.788;6.940;2023-06-22T07:49:02;23.40;99.90
53208;DHT22;39093;52.788;6.940;2023-06-22T07:51:30;23.40;99.90
53208;DHT22;39093;52.788;6.940;2023-06-22T07:53:57;23.50;99.90
53208;DHT22;39093;52.788;6.940;2023-06-22T07:56:24;23.60;99.90
53208;DHT22;39093;52.788;6.940;2023-06-22T07:58:51;23.70;99.90
53208;DHT22;39093;52.788;6.940;2023-06-22T08:01:18;23.80;99.90
53208;DHT22;39093;52.788;6.940;2023-06-22T08:03:50;23.90;99.90
53208;DHT22;39093;52.788;6.940;2023-06-22T08:06:18;23.90;99.90
53208;DHT22;39093;52.788;6.940;2023-06-22T08:08:45;23.90;99.90
53208;DHT22;39093;52.788;6.940;2023-06-22T08:11:14;23.90;99.90
53208;DHT22;39093;52.788;6.940;2023-06-22T08:13:41;24.10;99.90
53208;DHT22;39093;52.788;6.940;2023-06-22T08:16:08;24.20;99.90
53208;DHT22;39093;52.788;6.940;2023-06-22T08:18:35;24.30;99.90
53208;DHT22;39093;52.788;6.940;2023-06-22T08:21:02;24.40;99.90
53208;DHT22;39093;52.788;6.940;2023-06-22T08:23:31;24.50;99.90
53208;DHT22;39093;52.788;6.940;2023-06-22T08:25:58;24.50;99.90
53208;DHT22;39093;52.788;6.940;2023-06-22T08:28:25;24.60;99.90
53208;DHT22;39093;52.788;6.940;2023-06-22T08:30:52;24.60;99.90
53208;DHT22;39093;52.788;6.940;2023-06-22T08:33:19;24.60;99.90
53208;DHT22;39093;52.788;6.940;2023-06-22T08:35:55;24.70;99.90
53208;DHT22;39093;52.788;6.940;2023-06-22T08:38:22;24.70;99.90
53208;DHT22;39093;52.788;6.940;2023-06-22T08:40:49;24.70;99.90
53208;DHT22;39093;52.788;6.940;2023-06-22T08:43:16;24.70;99.90
53208;DHT22;39093;52.788;6.940;2023-06-22T08:45:42;24.70;99.90
53208;DHT22;39093;52.788;6.940;2023-06-22T08:48:10;24.70;99.90
53208;DHT22;39093;52.788;6.940;2023-06-22T08:50:37;24.60;99.90
53208;DHT22;39093;52.788;6.940;2023-06-22T08:53:07;24.70;99.90
53208;DHT22;39093;52.788;6.940;2023-06-22T08:55:34;24.70;99.90
53208;DHT22;39093;52.788;6.940;2023-06-22T08:58:01;24.70;99.90
53208;DHT22;39093;52.788;6.940;2023-06-22T09:00:28;24.90;99.90
53208;DHT22;39093;52.788;6.940;2023-06-22T09:02:59;24.90;99.90
53208;DHT22;39093;52.788;6.940;2023-06-22T09:05:26;25.00;99.90
53208;DHT22;39093;52.788;6.940;2023-06-22T09:07:54;25.00;99.90
53208;DHT22;39093;52.788;6.940;2023-06-22T09:10:25;25.00;99.90
53208;DHT22;39093;52.788;6.940;2023-06-22T09:12:53;25.00;99.90
53208;DHT22;39093;52.788;6.940;2023-06-22T09:15:20;25.10;99.90
53208;DHT22;39093;52.788;6.940;2023-06-22T09:17:47;25.00;99.90
53208;DHT22;39093;52.788;6.940;2023-06-22T09:20:15;25.00;99.90
53208;DHT22;39093;52.788;6.940;2023-06-22T09:22:42;25.00;99.90
53208;DHT22;39093;52.788;6.940;2023-06-22T09:25:09;25.10;99.90
53208;DHT22;39093;52.788;6.940;2023-06-22T09:27:36;25.10;99.90
53208;DHT22;39093;52.788;6.940;2023-06-22T09:30:04;25.00;99.90
53208;DHT22;39093;52.788;6.940;2023-06-22T09:32:31;24.80;99.90
53208;DHT22;39093;52.788;6.940;2023-06-22T09:34:58;25.00;99.90
53208;DHT22;39093;52.788;6.940;2023-06-22T09:37:25;25.10;99.90
53208;DHT22;39093;52.788;6.940;2023-06-22T09:39:52;25.20;99.90
53208;DHT22;39093;52.788;6.940;2023-06-22T09:42:19;25.20;99.90
53208;DHT22;39093;52.788;6.940;2023-06-22T09:44:47;25.40;99.90
53208;DHT22;39093;52.788;6.940;2023-06-22T09:47:14;25.50;99.90
53208;DHT22;39093;52.788;6.940;2023-06-22T09:49:41;25.60;99.90
53208;DHT22;39093;52.788;6.940;2023-06-22T09:52:15;25.70;99.90
53208;DHT22;39093;52.788;6.940;2023-06-22T09:54:42;25.90;99.60
53208;DHT22;39093;52.788;6.940;2023-06-22T09:57:09;25.90;99.70
53208;DHT22;39093;52.788;6.940;2023-06-22T09:59:36;25.90;99.80
53208;DHT22;39093;52.788;6.940;2023-06-22T10:02:03;26.00;99.90
53208;DHT22;39093;52.788;6.940;2023-06-22T10:04:31;26.10;99.20
53208;DHT22;39093;52.788;6.940;2023-06-22T10:06:58;26.20;99.80
53208;DHT22;39093;52.788;6.940;2023-06-22T10:09:25;26.20;98.40
53208;DHT22;39093;52.788;6.940;2023-06-22T10:11:52;26.30;99.60
53208;DHT22;39093;52.788;6.940;2023-06-22T10:14:19;26.50;99.30
53208;DHT22;39093;52.788;6.940;2023-06-22T10:16:46;26.60;98.60
53208;DHT22;39093;52.788;6.940;2023-06-22T10:19:13;26.70;98.30
53208;DHT22;39093;52.788;6.940;2023-06-22T10:21:40;26.80;98.30
53208;DHT22;39093;52.788;6.940;2023-06-22T10:24:07;26.90;97.40
53208;DHT22;39093;52.788;6.940;2023-06-22T10:26:34;26.80;97.20
53208;DHT22;39093;52.788;6.940;2023-06-22T10:29:02;26.70;96.80
53208;DHT22;39093;52.788;6.940;2023-06-22T10:31:32;26.70;97.30
53208;DHT22;39093;52.788;6.940;2023-06-22T10:33:59;26.80;97.10
53208;DHT22;39093;52.788;6.940;2023-06-22T10:36:26;26.90;97.50
53208;DHT22;39093;52.788;6.940;2023-06-22T10:38:53;27.00;96.90
53208;DHT22;39093;52.788;6.940;2023-06-22T10:41:20;27.10;96.90
53208;DHT22;39093;52.788;6.940;2023-06-22T10:43:47;27.30;97.30
53208;DHT22;39093;52.788;6.940;2023-06-22T10:46:14;27.30;96.70
53208;DHT22;39093;52.788;6.940;2023-06-22T10:48:41;27.40;96.40
53208;DHT22;39093;52.788;6.940;2023-06-22T10:51:08;27.50;95.40
53208;DHT22;39093;52.788;6.940;2023-06-22T10:53:35;27.50;95.70
53208;DHT22;39093;52.788;6.940;2023-06-22T10:56:03;27.60;95.40
53208;DHT22;39093;52.788;6.940;2023-06-22T10:58:30;27.70;95.00
53208;DHT22;39093;52.788;6.940;2023-06-22T11:00:57;27.90;95.20
53208;DHT22;39093;52.788;6.940;2023-06-22T11:03:25;28.00;95.00
53208;DHT22;39093;52.788;6.940;2023-06-22T11:05:52;28.10;94.00
53208;DHT22;39093;52.788;6.940;2023-06-22T11:08:19;28.00;94.90
53208;DHT22;39093;52.788;6.940;2023-06-22T11:10:46;28.10;94.70
53208;DHT22;39093;52.788;6.940;2023-06-22T11:13:13;28.20;94.90
53208;DHT22;39093;52.788;6.940;2023-06-22T11:15:40;28.20;94.70
53208;DHT22;39093;52.788;6.940;2023-06-22T11:18:07;28.20;94.90
53208;DHT22;39093;52.788;6.940;2023-06-22T11:20:34;28.10;93.70
53208;DHT22;39093;52.788;6.940;2023-06-22T11:23:05;27.90;93.20
53208;DHT22;39093;52.788;6.940;2023-06-22T11:25:35;27.80;93.60
53208;DHT22;39093;52.788;6.940;2023-06-22T11:28:03;27.90;93.40
53208;DHT22;39093;52.788;6.940;2023-06-22T11:30:30;27.80;93.70
53208;DHT22;39093;52.788;6.940;2023-06-22T11:32:58;27.70;94.00
53208;DHT22;39093;52.788;6.940;2023-06-22T11:35:26;27.70;93.50
53208;DHT22;39093;52.788;6.940;2023-06-22T11:37:53;27.60;94.30
53208;DHT22;39093;52.788;6.940;2023-06-22T11:40:20;27.40;94.40
53208;DHT22;39093;52.788;6.940;2023-06-22T11:42:47;27.40;93.60
53208;DHT22;39093;52.788;6.940;2023-06-22T11:45:14;27.30;93.50
53208;DHT22;39093;52.788;6.940;2023-06-22T11:47:41;27.30;92.70
53208;DHT22;39093;52.788;6.940;2023-06-22T11:50:08;27.20;92.40
53208;DHT22;39093;52.788;6.940;2023-06-22T11:52:35;27.10;93.70
53208;DHT22;39093;52.788;6.940;2023-06-22T11:55:03;27.00;94.00
53208;DHT22;39093;52.788;6.940;2023-06-22T11:57:35;27.00;93.80
53208;DHT22;39093;52.788;6.940;2023-06-22T12:00:03;27.10;93.70
53208;DHT22;39093;52.788;6.940;2023-06-22T12:02:44;27.10;92.90
53208;DHT22;39093;52.788;6.940;2023-06-22T12:05:14;27.20;93.30
53208;DHT22;39093;52.788;6.940;2023-06-22T12:07:41;27.20;93.50
53208;DHT22;39093;52.788;6.940;2023-06-22T12:10:08;27.30;92.70
53208;DHT22;39093;52.788;6.940;2023-06-22T12:12:35;27.20;93.70
53208;DHT22;39093;52.788;6.940;2023-06-22T12:15:05;27.20;93.30
53208;DHT22;39093;52.788;6.940;2023-06-22T12:17:33;27.20;93.10
53208;DHT22;39093;52.788;6.940;2023-06-22T12:20:00;27.10;93.10
53208;DHT22;39093;52.788;6.940;2023-06-22T12:22:27;27.00;93.30
53208;DHT22;39093;52.788;6.940;2023-06-22T12:24:54;26.90;93.40
53208;DHT22;39093;52.788;6.940;2023-06-22T12:27:21;26.80;93.40
53208;DHT22;39093;52.788;6.940;2023-06-22T12:29:48;26.80;93.30
53208;DHT22;39093;52.788;6.940;2023-06-22T12:32:15;26.80;93.20
53208;DHT22;39093;52.788;6.940;2023-06-22T12:34:42;26.80;92.90
53208;DHT22;39093;52.788;6.940;2023-06-22T12:37:10;26.80;93.00
53208;DHT22;39093;52.788;6.940;2023-06-22T12:39:37;26.80;93.70
53208;DHT22;39093;52.788;6.940;2023-06-22T12:42:04;26.70;93.90
53208;DHT22;39093;52.788;6.940;2023-06-22T12:44:32;26.60;93.70
53208;DHT22;39093;52.788;6.940;2023-06-22T12:46:59;26.50;93.70
53208;DHT22;39093;52.788;6.940;2023-06-22T12:49:26;26.40;93.70
53208;DHT22;39093;52.788;6.940;2023-06-22T12:51:52;26.30;93.40
53208;DHT22;39093;52.788;6.940;2023-06-22T12:54:19;26.20;94.00
53208;DHT22;39093;52.788;6.940;2023-06-22T12:56:46;26.00;93.40
53208;DHT22;39093;52.788;6.940;2023-06-22T12:59:13;25.90;93.70
53208;DHT22;39093;52.788;6.940;2023-06-22T13:01:40;25.70;94.10
53208;DHT22;39093;52.788;6.940;2023-06-22T13:04:07;25.70;94.00
53208;DHT22;39093;52.788;6.940;2023-06-22T13:06:34;25.60;93.80
53208;DHT22;39093;52.788;6.940;2023-06-22T13:09:01;25.60;93.90
53208;DHT22;39093;52.788;6.940;2023-06-22T13:11:31;25.60;94.20
53208;DHT22;39093;52.788;6.940;2023-06-22T13:13:58;25.60;94.30
53208;DHT22;39093;52.788;6.940;2023-06-22T13:16:25;25.60;94.50
53208;DHT22;39093;52.788;6.940;2023-06-22T13:18:52;25.50;94.50
53208;DHT22;39093;52.788;6.940;2023-06-22T13:21:19;25.50;94.40
53208;DHT22;39093;52.788;6.940;2023-06-22T13:23:46;25.50;93.90
53208;DHT22;39093;52.788;6.940;2023-06-22T13:26:13;25.50;93.60
53208;DHT22;39093;52.788;6.940;2023-06-22T13:28:40;25.50;93.70
53208;DHT22;39093;52.788;6.940;2023-06-22T13:31:07;25.50;94.20
53208;DHT22;39093;52.788;6.940;2023-06-22T13:33:35;25.50;94.50
53208;DHT22;39093;52.788;6.940;2023-06-22T13:36:02;25.50;94.40
53208;DHT22;39093;52.788;6.940;2023-06-22T13:38:31;25.50;94.20
53208;DHT22;39093;52.788;6.940;2023-06-22T13:40:59;25.50;94.40
53208;DHT22;39093;52.788;6.940;2023-06-22T13:43:27;25.50;94.50
53208;DHT22;39093;52.788;6.940;2023-06-22T13:45:54;25.60;94.30
53208;DHT22;39093;52.788;6.940;2023-06-22T13:48:26;25.50;93.90
53208;DHT22;39093;52.788;6.940;2023-06-22T13:50:55;25.50;94.30
53208;DHT22;39093;52.788;6.940;2023-06-22T13:53:24;25.60;93.90
53208;DHT22;39093;52.788;6.940;2023-06-22T13:55:51;25.60;93.40
53208;DHT22;39093;52.788;6.940;2023-06-22T13:58:18;25.50;93.10
53208;DHT22;39093;52.788;6.940;2023-06-22T14:00:46;25.50;93.40
53208;DHT22;39093;52.788;6.940;2023-06-22T14:03:14;25.50;93.60
53208;DHT22;39093;52.788;6.940;2023-06-22T14:05:43;25.50;93.90
53208;DHT22;39093;52.788;6.940;2023-06-22T14:08:11;25.50;95.10
53208;DHT22;39093;52.788;6.940;2023-06-22T14:10:58;25.40;96.00
53208;DHT22;39093;52.788;6.940;2023-06-22T14:13:26;25.50;95.70
53208;DHT22;39093;52.788;6.940;2023-06-22T14:15:52;25.50;95.90
53208;DHT22;39093;52.788;6.940;2023-06-22T14:18:20;25.40;95.70
53208;DHT22;39093;52.788;6.940;2023-06-22T14:20:49;25.40;95.50
53208;DHT22;39093;52.788;6.940;2023-06-22T14:23:16;25.40;95.90
53208;DHT22;39093;52.788;6.940;2023-06-22T14:25:43;25.40;96.00
53208;DHT22;39093;52.788;6.940;2023-06-22T14:28:10;25.30;96.00
53208;DHT22;39093;52.788;6.940;2023-06-22T14:30:36;25.30;97.00
53208;DHT22;39093;52.788;6.940;2023-06-22T14:33:22;25.30;97.10
53208;DHT22;39093;52.788;6.940;2023-06-22T14:35:51;25.30;97.80
53208;DHT22;39093;52.788;6.940;2023-06-22T14:38:18;25.20;97.20
53208;DHT22;39093;52.788;6.940;2023-06-22T14:40:45;25.30;97.30
53208;DHT22;39093;52.788;6.940;2023-06-22T14:43:32;25.40;97.60
53208;DHT22;39093;52.788;6.940;2023-06-22T14:45:59;25.30;98.50
53208;DHT22;39093;52.788;6.940;2023-06-22T14:48:27;25.30;98.20
53208;DHT22;39093;52.788;6.940;2023-06-22T14:50:56;25.30;98.30
53208;DHT22;39093;52.788;6.940;2023-06-22T14:53:23;25.20;98.00
53208;DHT22;39093;52.788;6.940;2023-06-22T14:55:50;25.20;98.40
53208;DHT22;39093;52.788;6.940;2023-06-22T14:58:17;25.20;99.00
53208;DHT22;39093;52.788;6.940;2023-06-22T15:00:47;25.00;98.50
53208;DHT22;39093;52.788;6.940;2023-06-22T15:03:14;25.00;98.50
53208;DHT22;39093;52.788;6.940;2023-06-22T15:05:48;24.90;98.70
53208;DHT22;39093;52.788;6.940;2023-06-22T15:08:15;24.90;98.70
53208;DHT22;39093;52.788;6.940;2023-06-22T15:10:42;24.70;99.00
53208;DHT22;39093;52.788;6.940;2023-06-22T15:13:09;24.70;99.00
53208;DHT22;39093;52.788;6.940;2023-06-22T15:15:36;24.60;99.00
53208;DHT22;39093;52.788;6.940;2023-06-22T15:18:03;24.50;99.70
53208;DHT22;39093;52.788;6.940;2023-06-22T15:20:30;24.50;99.50
53208;DHT22;39093;52.788;6.940;2023-06-22T15:22:59;24.40;99.90
53208;DHT22;39093;52.788;6.940;2023-06-22T15:25:32;24.30;99.90
53208;DHT22;39093;52.788;6.940;2023-06-22T15:28:01;24.20;99.90
53208;DHT22;39093;52.788;6.940;2023-06-22T15:30:37;24.10;99.90
53208;DHT22;39093;52.788;6.940;2023-06-22T15:33:42;23.90;99.90
53208;DHT22;39093;52.788;6.940;2023-06-22T15:36:09;23.70;99.90
53208;DHT22;39093;52.788;6.940;2023-06-22T15:38:36;23.60;99.90